sensor_id;sensor_type;location;lat;lon;timestamp;temperature;humidity
42907;DHT22;28552;51.146;6.576;2023-01-29T00:01:06;-3.20;99.90
42907;DHT22;28552;51.146;6.576;2023-01-29T00:04:07;-3.30;99.90
42907;DHT22;28552;51.146;6.576;2023-01-29T00:07:08;-3.20;99.90
42907;DHT22;28552;51.146;6.576;2023-01-29T00:10:09;-3.30;99.90
42907;DHT22;28552;51.146;6.576;2023-01-29T00:13:09;-3.30;99.90
42907;DHT22;28552;51.146;6.576;2023-01-29T00:16:10;-3.20;99.90
42907;DHT22;28552;51.146;6.576;2023-01-29T00:19:10;-3.20;99.90
42907;DHT22;28552;51.146;6.576;2023-01-29T00:22:11;-3.30;99.90
42907;DHT22;28552;51.146;6.576;2023-01-29T00:25:11;-3.30;99.90
42907;DHT22;28552;51.146;6.576;2023-01-29T00:28:12;-3.30;99.90
42907;DHT22;28552;51.146;6.576;2023-01-29T00:31:16;-3.30;99.90
42907;DHT22;28552;51.146;6.576;2023-01-29T00:34:16;-3.30;99.90
42907;DHT22;28552;51.146;6.576;2023-01-29T00:37:17;-3.30;99.90
42907;DHT22;28552;51.146;6.576;2023-01-29T00:40:17;-3.30;99.90
42907;DHT22;28552;51.146;6.576;2023-01-29T00:43:20;-3.30;99.90
42907;DHT22;28552;51.146;6.576;2023-01-29T00:46:36;-3.30;99.90
42907;DHT22;28552;51.146;6.576;2023-01-29T00:49:37;-3.30;99.90
42907;DHT22;28552;51.146;6.576;2023-01-29T00:52:37;-3.30;99.90
42907;DHT22;28552;51.146;6.576;2023-01-29T00:55:40;-3.30;99.90
42907;DHT22;28552;51.146;6.576;2023-01-29T00:58:40;-3.30;99.90
42907;DHT22;28552;51.146;6.576;2023-01-29T01:01:41;-3.20;99.90
42907;DHT22;28552;51.146;6.576;2023-01-29T01:04:56;-3.30;99.90
42907;DHT22;28552;51.146;6.576;2023-01-29T01:07:57;-3.30;99.90
42907;DHT22;28552;51.146;6.576;2023-01-29T01:11:01;-3.30;99.90
42907;DHT22;28552;51.146;6.576;2023-01-29T01:14:02;-3.20;99.90
42907;DHT22;28552;51.146;6.576;2023-01-29T01:17:03;-3.30;99.90
42907;DHT22;28552;51.146;6.576;2023-01-29T01:20:04;-3.30;99.90
42907;DHT22;28552;51.146;6.576;2023-01-29T01:23:04;-3.30;99.90
42907;DHT22;28552;51.146;6.576;2023-01-29T01:26:08;-3.30;99.90
42907;DHT22;28552;51.146;6.576;2023-01-29T01:29:08;-3.40;99.90
42907;DHT22;28552;51.146;6.576;2023-01-29T01:32:09;-3.40;99.90
42907;DHT22;28552;51.146;6.576;2023-01-29T01:35:10;-3.50;99.90
42907;DHT22;28552;51.146;6.576;2023-01-29T01:38:11;-3.50;99.90
42907;DHT22;28552;51.146;6.576;2023-01-29T01:41:14;-3.50;99.90
42907;DHT22;28552;51.146;6.576;2023-01-29T01:47:50;-3.50;99.90
42907;DHT22;28552;51.146;6.576;2023-01-29T01:50:55;-3.50;99.90
42907;DHT22;28552;51.146;6.576;2023-01-29T01:54:06;-3.60;99.90
42907;DHT22;28552;51.146;6.576;2023-01-29T01:57:09;-3.60;99.90
42907;DHT22;28552;51.146;6.576;2023-01-29T02:00:17;-3.60;99.90
42907;DHT22;28552;51.146;6.576;2023-01-29T02:03:20;-3.60;99.90
42907;DHT22;28552;51.146;6.576;2023-01-29T02:06:38;-3.50;99.90
42907;DHT22;28552;51.146;6.576;2023-01-29T02:10:04;-3.60;99.90
42907;DHT22;28552;51.146;6.576;2023-01-29T02:13:07;-3.60;99.90
42907;DHT22;28552;51.146;6.576;2023-01-29T02:16:07;-3.50;99.90
42907;DHT22;28552;51.146;6.576;2023-01-29T02:19:18;-3.50;99.90
42907;DHT22;28552;51.146;6.576;2023-01-29T02:29:11;-3.60;99.90
42907;DHT22;28552;51.146;6.576;2023-01-29T02:32:32;-3.60;99.90
42907;DHT22;28552;51.146;6.576;2023-01-29T02:35:39;-3.60;99.90
42907;DHT22;28552;51.146;6.576;2023-01-29T02:42:14;-3.60;99.90
42907;DHT22;28552;51.146;6.576;2023-01-29T02:45:20;-3.50;99.90
42907;DHT22;28552;51.146;6.576;2023-01-29T02:48:22;-3.50;99.90
42907;DHT22;28552;51.146;6.576;2023-01-29T02:57:48;-3.30;99.90
42907;DHT22;28552;51.146;6.576;2023-01-29T03:00:51;-3.20;99.90
42907;DHT22;28552;51.146;6.576;2023-01-29T03:03:56;-3.20;99.90
42907;DHT22;28552;51.146;6.576;2023-01-29T03:07:04;-3.20;99.90
42907;DHT22;28552;51.146;6.576;2023-01-29T03:10:13;-3.20;99.90
42907;DHT22;28552;51.146;6.576;2023-01-29T03:13:21;-3.20;99.90
42907;DHT22;28552;51.146;6.576;2023-01-29T03:16:35;-3.20;99.90
42907;DHT22;28552;51.146;6.576;2023-01-29T03:19:40;-3.30;99.90
42907;DHT22;28552;51.146;6.576;2023-01-29T03:22:48;-3.30;99.90
42907;DHT22;28552;51.146;6.576;2023-01-29T03:25:54;-3.30;99.90
42907;DHT22;28552;51.146;6.576;2023-01-29T03:29:11;-3.30;99.90
42907;DHT22;28552;51.146;6.576;2023-01-29T03:32:29;-3.40;99.90
42907;DHT22;28552;51.146;6.576;2023-01-29T03:35:32;-3.40;99.90
42907;DHT22;28552;51.146;6.576;2023-01-29T03:38:36;-3.40;99.90
42907;DHT22;28552;51.146;6.576;2023-01-29T03:41:43;-3.40;99.90
42907;DHT22;28552;51.146;6.576;2023-01-29T03:51:38;-3.50;99.90
42907;DHT22;28552;51.146;6.576;2023-01-29T03:57:51;-3.50;99.90
42907;DHT22;28552;51.146;6.576;2023-01-29T04:00:59;-3.40;99.90
42907;DHT22;28552;51.146;6.576;2023-01-29T04:07:22;-3.40;99.90
42907;DHT22;28552;51.146;6.576;2023-01-29T04:10:26;-3.40;99.90
42907;DHT22;28552;51.146;6.576;2023-01-29T04:13:30;-3.40;99.90
42907;DHT22;28552;51.146;6.576;2023-01-29T04:16:37;-3.40;99.90
42907;DHT22;28552;51.146;6.576;2023-01-29T04:19:40;-3.50;99.90
42907;DHT22;28552;51.146;6.576;2023-01-29T04:22:45;-3.50;99.90
42907;DHT22;28552;51.146;6.576;2023-01-29T04:25:53;-3.50;99.90
42907;DHT22;28552;51.146;6.576;2023-01-29T04:36:02;-3.50;99.90
42907;DHT22;28552;51.146;6.576;2023-01-29T04:39:17;-3.40;99.90
42907;DHT22;28552;51.146;6.576;2023-01-29T04:49:17;-3.30;99.90
42907;DHT22;28552;51.146;6.576;2023-01-29T04:55:59;-3.20;99.90
42907;DHT22;28552;51.146;6.576;2023-01-29T04:59:03;-3.20;99.90
42907;DHT22;28552;51.146;6.576;2023-01-29T05:02:06;-3.20;99.90
42907;DHT22;28552;51.146;6.576;2023-01-29T05:05:09;-3.30;99.90
42907;DHT22;28552;51.146;6.576;2023-01-29T05:08:15;-3.30;99.90
42907;DHT22;28552;51.146;6.576;2023-01-29T05:11:17;-3.30;99.90
42907;DHT22;28552;51.146;6.576;2023-01-29T05:14:19;-3.30;99.90
42907;DHT22;28552;51.146;6.576;2023-01-29T05:17:21;-3.30;99.90
42907;DHT22;28552;51.146;6.576;2023-01-29T05:20:22;-3.30;99.90
42907;DHT22;28552;51.146;6.576;2023-01-29T05:23:22;-3.30;99.90
42907;DHT22;28552;51.146;6.576;2023-01-29T05:26:23;-3.20;99.90
42907;DHT22;28552;51.146;6.576;2023-01-29T05:29:43;-3.30;99.90
42907;DHT22;28552;51.146;6.576;2023-01-29T05:32:44;-3.20;99.90
42907;DHT22;28552;51.146;6.576;2023-01-29T05:35:45;-3.20;99.90
42907;DHT22;28552;51.146;6.576;2023-01-29T05:38:46;-3.20;99.90
42907;DHT22;28552;51.146;6.576;2023-01-29T05:41:46;-3.30;99.90
42907;DHT22;28552;51.146;6.576;2023-01-29T05:44:47;-3.30;99.90
42907;DHT22;28552;51.146;6.576;2023-01-29T05:47:47;-3.30;99.90
42907;DHT22;28552;51.146;6.576;2023-01-29T05:50:48;-3.30;99.90
42907;DHT22;28552;51.146;6.576;2023-01-29T05:53:49;-3.30;99.90
42907;DHT22;28552;51.146;6.576;2023-01-29T05:56:49;-3.40;99.90
42907;DHT22;28552;51.146;6.576;2023-01-29T05:59:50;-3.40;99.90
42907;DHT22;28552;51.146;6.576;2023-01-29T06:02:50;-3.40;99.90
42907;DHT22;28552;51.146;6.576;2023-01-29T06:05:51;-3.40;99.90
42907;DHT22;28552;51.146;6.576;2023-01-29T06:08:51;-3.30;99.90
42907;DHT22;28552;51.146;6.576;2023-01-29T06:11:52;-3.30;99.90
42907;DHT22;28552;51.146;6.576;2023-01-29T06:14:52;-3.30;99.90
42907;DHT22;28552;51.146;6.576;2023-01-29T06:17:53;-3.20;99.90
42907;DHT22;28552;51.146;6.576;2023-01-29T06:20:53;-3.10;99.90
42907;DHT22;28552;51.146;6.576;2023-01-29T06:23:54;-3.00;99.90
42907;DHT22;28552;51.146;6.576;2023-01-29T06:26:55;-2.90;99.90
42907;DHT22;28552;51.146;6.576;2023-01-29T06:29:55;-2.70;99.90
42907;DHT22;28552;51.146;6.576;2023-01-29T06:32:56;-2.60;99.90
42907;DHT22;28552;51.146;6.576;2023-01-29T06:36:00;-2.50;99.90
42907;DHT22;28552;51.146;6.576;2023-01-29T06:39:01;-2.50;99.90
42907;DHT22;28552;51.146;6.576;2023-01-29T06:42:02;-2.40;99.90
42907;DHT22;28552;51.146;6.576;2023-01-29T06:45:02;-2.30;99.90
42907;DHT22;28552;51.146;6.576;2023-01-29T06:48:03;-2.20;99.90
42907;DHT22;28552;51.146;6.576;2023-01-29T06:51:06;-2.20;99.90
42907;DHT22;28552;51.146;6.576;2023-01-29T06:54:08;-2.10;99.90
42907;DHT22;28552;51.146;6.576;2023-01-29T06:57:09;-2.10;99.90
42907;DHT22;28552;51.146;6.576;2023-01-29T07:00:10;-2.00;99.90
42907;DHT22;28552;51.146;6.576;2023-01-29T07:03:11;-2.00;99.90
42907;DHT22;28552;51.146;6.576;2023-01-29T07:06:11;-1.90;99.90
42907;DHT22;28552;51.146;6.576;2023-01-29T07:09:12;-1.90;99.90
42907;DHT22;28552;51.146;6.576;2023-01-29T07:12:13;-1.90;99.90
42907;DHT22;28552;51.146;6.576;2023-01-29T07:15:14;-1.90;99.90
42907;DHT22;28552;51.146;6.576;2023-01-29T07:18:18;-1.80;99.90
42907;DHT22;28552;51.146;6.576;2023-01-29T07:21:19;-1.80;99.90
42907;DHT22;28552;51.146;6.576;2023-01-29T07:24:19;-1.70;99.90
42907;DHT22;28552;51.146;6.576;2023-01-29T07:27:20;-1.70;99.90
42907;DHT22;28552;51.146;6.576;2023-01-29T07:30:20;-1.70;99.90
42907;DHT22;28552;51.146;6.576;2023-01-29T07:33:21;-1.60;99.90
42907;DHT22;28552;51.146;6.576;2023-01-29T07:36:21;-1.60;99.90
42907;DHT22;28552;51.146;6.576;2023-01-29T07:39:23;-1.50;99.90
42907;DHT22;28552;51.146;6.576;2023-01-29T07:42:24;-1.50;99.90
42907;DHT22;28552;51.146;6.576;2023-01-29T07:45:24;-1.40;99.90
42907;DHT22;28552;51.146;6.576;2023-01-29T07:48:25;-1.40;99.90
42907;DHT22;28552;51.146;6.576;2023-01-29T07:51:25;-1.30;99.90
42907;DHT22;28552;51.146;6.576;2023-01-29T07:54:26;-1.30;99.90
42907;DHT22;28552;51.146;6.576;2023-01-29T07:57:26;-1.20;99.90
42907;DHT22;28552;51.146;6.576;2023-01-29T08:00:28;-1.20;99.90
42907;DHT22;28552;51.146;6.576;2023-01-29T08:03:29;-1.10;99.90
42907;DHT22;28552;51.146;6.576;2023-01-29T08:06:29;-1.00;99.90
42907;DHT22;28552;51.146;6.576;2023-01-29T08:09:30;-1.00;99.90
42907;DHT22;28552;51.146;6.576;2023-01-29T08:12:31;-1.00;99.90
42907;DHT22;28552;51.146;6.576;2023-01-29T08:15:32;-0.90;99.90
42907;DHT22;28552;51.146;6.576;2023-01-29T08:18:33;-0.90;99.90
42907;DHT22;28552;51.146;6.576;2023-01-29T08:21:33;-0.90;99.90
42907;DHT22;28552;51.146;6.576;2023-01-29T08:24:34;-0.90;99.90
42907;DHT22;28552;51.146;6.576;2023-01-29T08:27:35;-0.80;99.90
42907;DHT22;28552;51.146;6.576;2023-01-29T08:30:35;-0.80;99.90
42907;DHT22;28552;51.146;6.576;2023-01-29T08:33:36;-0.80;99.90
42907;DHT22;28552;51.146;6.576;2023-01-29T08:36:36;-0.70;99.90
42907;DHT22;28552;51.146;6.576;2023-01-29T08:39:37;-0.60;99.90
42907;DHT22;28552;51.146;6.576;2023-01-29T08:42:37;-0.50;99.90
42907;DHT22;28552;51.146;6.576;2023-01-29T08:45:40;-0.40;99.90
42907;DHT22;28552;51.146;6.576;2023-01-29T08:48:41;-0.30;99.90
42907;DHT22;28552;51.146;6.576;2023-01-29T08:51:42;-0.20;99.90
42907;DHT22;28552;51.146;6.576;2023-01-29T08:54:42;-0.10;99.90
42907;DHT22;28552;51.146;6.576;2023-01-29T08:57:43;0.00;99.90
42907;DHT22;28552;51.146;6.576;2023-01-29T09:00:43;0.00;99.90
42907;DHT22;28552;51.146;6.576;2023-01-29T09:03:44;0.10;99.90
42907;DHT22;28552;51.146;6.576;2023-01-29T09:06:45;0.10;99.90
42907;DHT22;28552;51.146;6.576;2023-01-29T09:09:46;0.20;99.90
42907;DHT22;28552;51.146;6.576;2023-01-29T09:12:46;0.20;99.90
42907;DHT22;28552;51.146;6.576;2023-01-29T09:15:47;0.30;99.90
42907;DHT22;28552;51.146;6.576;2023-01-29T09:18:47;0.40;99.90
42907;DHT22;28552;51.146;6.576;2023-01-29T09:21:48;0.40;99.90
42907;DHT22;28552;51.146;6.576;2023-01-29T09:24:49;0.50;99.90
42907;DHT22;28552;51.146;6.576;2023-01-29T09:27:49;0.50;99.90
42907;DHT22;28552;51.146;6.576;2023-01-29T09:30:50;0.50;99.90
42907;DHT22;28552;51.146;6.576;2023-01-29T09:33:50;0.60;99.90
42907;DHT22;28552;51.146;6.576;2023-01-29T09:36:51;0.70;99.90
42907;DHT22;28552;51.146;6.576;2023-01-29T09:39:52;0.80;99.90
42907;DHT22;28552;51.146;6.576;2023-01-29T09:43:00;0.80;99.90
42907;DHT22;28552;51.146;6.576;2023-01-29T09:46:04;0.80;99.90
42907;DHT22;28552;51.146;6.576;2023-01-29T09:49:14;0.90;99.90
42907;DHT22;28552;51.146;6.576;2023-01-29T09:52:24;0.90;99.90
42907;DHT22;28552;51.146;6.576;2023-01-29T09:55:32;0.90;99.90
42907;DHT22;28552;51.146;6.576;2023-01-29T09:58:38;1.00;99.90
42907;DHT22;28552;51.146;6.576;2023-01-29T10:01:54;1.10;99.90
42907;DHT22;28552;51.146;6.576;2023-01-29T10:05:03;1.30;99.90
42907;DHT22;28552;51.146;6.576;2023-01-29T10:08:19;1.40;99.90
42907;DHT22;28552;51.146;6.576;2023-01-29T10:11:46;1.50;99.90
42907;DHT22;28552;51.146;6.576;2023-01-29T10:27:41;2.00;99.90
42907;DHT22;28552;51.146;6.576;2023-01-29T10:30:56;2.00;99.90
42907;DHT22;28552;51.146;6.576;2023-01-29T10:34:10;2.10;99.90
42907;DHT22;28552;51.146;6.576;2023-01-29T10:37:19;2.00;99.90
42907;DHT22;28552;51.146;6.576;2023-01-29T10:40:37;2.00;99.90
42907;DHT22;28552;51.146;6.576;2023-01-29T10:44:00;2.00;99.90
42907;DHT22;28552;51.146;6.576;2023-01-29T10:47:26;2.10;99.90
42907;DHT22;28552;51.146;6.576;2023-01-29T10:50:46;2.10;99.90
42907;DHT22;28552;51.146;6.576;2023-01-29T10:54:13;2.10;99.90
42907;DHT22;28552;51.146;6.576;2023-01-29T11:00:44;2.10;99.90
42907;DHT22;28552;51.146;6.576;2023-01-29T11:03:45;2.10;99.90
42907;DHT22;28552;51.146;6.576;2023-01-29T11:06:52;2.10;99.90
42907;DHT22;28552;51.146;6.576;2023-01-29T11:09:59;2.20;99.90
42907;DHT22;28552;51.146;6.576;2023-01-29T11:13:03;2.20;99.90
42907;DHT22;28552;51.146;6.576;2023-01-29T11:16:05;2.30;99.90
42907;DHT22;28552;51.146;6.576;2023-01-29T11:19:05;2.30;99.90
42907;DHT22;28552;51.146;6.576;2023-01-29T11:22:14;2.40;99.90
42907;DHT22;28552;51.146;6.576;2023-01-29T11:25:18;2.40;99.90
42907;DHT22;28552;51.146;6.576;2023-01-29T11:28:36;2.40;99.90
42907;DHT22;28552;51.146;6.576;2023-01-29T11:31:37;2.40;99.90
42907;DHT22;28552;51.146;6.576;2023-01-29T11:34:56;2.40;99.90
42907;DHT22;28552;51.146;6.576;2023-01-29T11:38:07;2.40;99.90
42907;DHT22;28552;51.146;6.576;2023-01-29T11:41:15;2.50;99.90
42907;DHT22;28552;51.146;6.576;2023-01-29T11:44:29;2.50;99.90
42907;DHT22;28552;51.146;6.576;2023-01-29T11:47:30;2.50;99.90
42907;DHT22;28552;51.146;6.576;2023-01-29T11:50:32;2.50;99.90
42907;DHT22;28552;51.146;6.576;2023-01-29T11:53:35;2.50;99.90
42907;DHT22;28552;51.146;6.576;2023-01-29T11:56:41;2.50;99.90
42907;DHT22;28552;51.146;6.576;2023-01-29T11:59:45;2.50;99.90
42907;DHT22;28552;51.146;6.576;2023-01-29T12:02:53;2.50;99.90
42907;DHT22;28552;51.146;6.576;2023-01-29T12:05:55;2.60;99.90
42907;DHT22;28552;51.146;6.576;2023-01-29T12:09:00;2.60;99.90
42907;DHT22;28552;51.146;6.576;2023-01-29T12:12:25;2.70;99.90
42907;DHT22;28552;51.146;6.576;2023-01-29T12:15:27;2.80;99.90
42907;DHT22;28552;51.146;6.576;2023-01-29T12:18:38;2.80;99.90
42907;DHT22;28552;51.146;6.576;2023-01-29T12:24:58;2.80;99.90
42907;DHT22;28552;51.146;6.576;2023-01-29T12:31:43;2.90;99.90
42907;DHT22;28552;51.146;6.576;2023-01-29T12:34:54;2.90;99.90
42907;DHT22;28552;51.146;6.576;2023-01-29T12:38:17;2.90;99.90
42907;DHT22;28552;51.146;6.576;2023-01-29T12:44:51;2.90;99.90
42907;DHT22;28552;51.146;6.576;2023-01-29T12:48:05;3.00;99.90
42907;DHT22;28552;51.146;6.576;2023-01-29T12:51:10;3.00;99.90
42907;DHT22;28552;51.146;6.576;2023-01-29T12:54:18;3.00;99.90
42907;DHT22;28552;51.146;6.576;2023-01-29T12:57:28;3.00;99.90
42907;DHT22;28552;51.146;6.576;2023-01-29T13:00:37;3.10;99.90
42907;DHT22;28552;51.146;6.576;2023-01-29T13:03:52;3.00;99.90
42907;DHT22;28552;51.146;6.576;2023-01-29T13:06:58;3.00;99.90
42907;DHT22;28552;51.146;6.576;2023-01-29T13:10:09;3.00;99.90
42907;DHT22;28552;51.146;6.576;2023-01-29T13:13:29;3.00;99.90
42907;DHT22;28552;51.146;6.576;2023-01-29T13:16:32;3.10;99.90
42907;DHT22;28552;51.146;6.576;2023-01-29T13:19:41;3.10;99.90
42907;DHT22;28552;51.146;6.576;2023-01-29T13:22:45;3.20;99.90
42907;DHT22;28552;51.146;6.576;2023-01-29T13:25:54;3.30;99.90
42907;DHT22;28552;51.146;6.576;2023-01-29T13:28:55;3.40;99.90
42907;DHT22;28552;51.146;6.576;2023-01-29T13:32:00;3.50;99.90
42907;DHT22;28552;51.146;6.576;2023-01-29T13:35:04;3.40;99.90
42907;DHT22;28552;51.146;6.576;2023-01-29T13:41:32;3.30;99.90
42907;DHT22;28552;51.146;6.576;2023-01-29T13:44:36;3.20;99.90
42907;DHT22;28552;51.146;6.576;2023-01-29T13:47:38;3.10;99.90
42907;DHT22;28552;51.146;6.576;2023-01-29T13:50:40;3.00;99.90
42907;DHT22;28552;51.146;6.576;2023-01-29T13:53:43;2.90;99.90
42907;DHT22;28552;51.146;6.576;2023-01-29T13:56:58;2.90;99.90
42907;DHT22;28552;51.146;6.576;2023-01-29T13:59:59;2.80;99.90
42907;DHT22;28552;51.146;6.576;2023-01-29T14:06:00;2.70;99.90
42907;DHT22;28552;51.146;6.576;2023-01-29T14:09:01;2.60;99.90
42907;DHT22;28552;51.146;6.576;2023-01-29T14:12:02;2.60;99.90
42907;DHT22;28552;51.146;6.576;2023-01-29T14:15:17;2.60;99.90
42907;DHT22;28552;51.146;6.576;2023-01-29T14:18:19;2.60;99.90
42907;DHT22;28552;51.146;6.576;2023-01-29T14:21:24;2.60;99.90
42907;DHT22;28552;51.146;6.576;2023-01-29T14:24:29;2.60;99.90
42907;DHT22;28552;51.146;6.576;2023-01-29T14:27:31;2.60;99.90
42907;DHT22;28552;51.146;6.576;2023-01-29T14:30:33;2.60;99.90
42907;DHT22;28552;51.146;6.576;2023-01-29T14:33:36;2.50;99.90
42907;DHT22;28552;51.146;6.576;2023-01-29T14:36:40;2.50;99.90
42907;DHT22;28552;51.146;6.576;2023-01-29T14:39:49;2.60;99.90
42907;DHT22;28552;51.146;6.576;2023-01-29T14:43:05;2.60;99.90
42907;DHT22;28552;51.146;6.576;2023-01-29T14:49:56;2.50;99.90
42907;DHT22;28552;51.146;6.576;2023-01-29T14:53:00;2.50;99.90
42907;DHT22;28552;51.146;6.576;2023-01-29T14:59:38;2.50;99.90
42907;DHT22;28552;51.146;6.576;2023-01-29T15:02:45;2.50;99.90
42907;DHT22;28552;51.146;6.576;2023-01-29T15:05:47;2.40;99.90
42907;DHT22;28552;51.146;6.576;2023-01-29T15:08:54;2.40;99.90
42907;DHT22;28552;51.146;6.576;2023-01-29T15:12:22;2.40;99.90
42907;DHT22;28552;51.146;6.576;2023-01-29T15:18:42;2.40;99.90
42907;DHT22;28552;51.146;6.576;2023-01-29T15:22:02;2.40;99.90
42907;DHT22;28552;51.146;6.576;2023-01-29T15:25:05;2.40;99.90
42907;DHT22;28552;51.146;6.576;2023-01-29T15:28:09;2.30;99.90
42907;DHT22;28552;51.146;6.576;2023-01-29T15:31:13;2.30;99.90
42907;DHT22;28552;51.146;6.576;2023-01-29T15:34:16;2.30;99.90
42907;DHT22;28552;51.146;6.576;2023-01-29T15:37:26;2.40;99.90
42907;DHT22;28552;51.146;6.576;2023-01-29T15:40:27;2.40;99.90
42907;DHT22;28552;51.146;6.576;2023-01-29T15:43:34;2.40;99.90
42907;DHT22;28552;51.146;6.576;2023-01-29T15:46:37;2.40;99.90
42907;DHT22;28552;51.146;6.576;2023-01-29T15:49:39;2.30;99.90
42907;DHT22;28552;51.146;6.576;2023-01-29T15:52:40;2.40;99.90
42907;DHT22;28552;51.146;6.576;2023-01-29T15:55:41;2.40;99.90
42907;DHT22;28552;51.146;6.576;2023-01-29T15:58:42;2.30;99.90
42907;DHT22;28552;51.146;6.576;2023-01-29T16:01:46;2.40;99.90
42907;DHT22;28552;51.146;6.576;2023-01-29T16:04:46;2.40;99.90
42907;DHT22;28552;51.146;6.576;2023-01-29T16:07:49;2.40;99.90
42907;DHT22;28552;51.146;6.576;2023-01-29T16:10:55;2.40;99.90
42907;DHT22;28552;51.146;6.576;2023-01-29T16:13:57;2.40;99.90
42907;DHT22;28552;51.146;6.576;2023-01-29T16:17:10;2.40;99.90
42907;DHT22;28552;51.146;6.576;2023-01-29T16:23:50;2.30;99.90
42907;DHT22;28552;51.146;6.576;2023-01-29T16:26:58;2.40;99.90
42907;DHT22;28552;51.146;6.576;2023-01-29T16:29:59;2.30;99.90
42907;DHT22;28552;51.146;6.576;2023-01-29T16:33:06;2.30;99.90
42907;DHT22;28552;51.146;6.576;2023-01-29T16:36:16;2.30;99.90
42907;DHT22;28552;51.146;6.576;2023-01-29T16:39:20;2.40;99.90
42907;DHT22;28552;51.146;6.576;2023-01-29T16:42:27;2.40;99.90
42907;DHT22;28552;51.146;6.576;2023-01-29T16:45:28;2.40;99.90
42907;DHT22;28552;51.146;6.576;2023-01-29T16:48:32;2.40;99.90
42907;DHT22;28552;51.146;6.576;2023-01-29T16:51:37;2.40;99.90
42907;DHT22;28552;51.146;6.576;2023-01-29T16:54:41;2.40;99.90
42907;DHT22;28552;51.146;6.576;2023-01-29T16:57:43;2.40;99.90
42907;DHT22;28552;51.146;6.576;2023-01-29T17:00:51;2.40;99.90
42907;DHT22;28552;51.146;6.576;2023-01-29T17:07:00;2.40;99.90
42907;DHT22;28552;51.146;6.576;2023-01-29T17:10:04;2.40;99.90
42907;DHT22;28552;51.146;6.576;2023-01-29T17:13:08;2.30;99.90
42907;DHT22;28552;51.146;6.576;2023-01-29T17:19:20;2.30;99.90
42907;DHT22;28552;51.146;6.576;2023-01-29T17:22:23;2.40;99.90
42907;DHT22;28552;51.146;6.576;2023-01-29T17:25:23;2.30;99.90
42907;DHT22;28552;51.146;6.576;2023-01-29T17:28:24;2.30;99.90
42907;DHT22;28552;51.146;6.576;2023-01-29T17:31:25;2.40;99.90
42907;DHT22;28552;51.146;6.576;2023-01-29T17:34:26;2.40;99.90
42907;DHT22;28552;51.146;6.576;2023-01-29T17:37:26;2.30;99.90
42907;DHT22;28552;51.146;6.576;2023-01-29T17:40:34;2.40;99.90
42907;DHT22;28552;51.146;6.576;2023-01-29T17:43:36;2.30;99.90
42907;DHT22;28552;51.146;6.576;2023-01-29T17:46:37;2.40;99.90
42907;DHT22;28552;51.146;6.576;2023-01-29T17:49:37;2.40;99.90
42907;DHT22;28552;51.146;6.576;2023-01-29T17:52:38;2.40;99.90
42907;DHT22;28552;51.146;6.576;2023-01-29T17:55:39;2.40;99.90
42907;DHT22;28552;51.146;6.576;2023-01-29T17:58:39;2.40;99.90
42907;DHT22;28552;51.146;6.576;2023-01-29T18:01:40;2.40;99.90
42907;DHT22;28552;51.146;6.576;2023-01-29T18:04:41;2.40;99.90
42907;DHT22;28552;51.146;6.576;2023-01-29T18:07:43;2.40;99.90
42907;DHT22;28552;51.146;6.576;2023-01-29T18:10:44;2.40;99.90
42907;DHT22;28552;51.146;6.576;2023-01-29T18:13:45;2.40;99.90
42907;DHT22;28552;51.146;6.576;2023-01-29T18:16:46;2.40;99.90
42907;DHT22;28552;51.146;6.576;2023-01-29T18:19:47;2.40;99.90
42907;DHT22;28552;51.146;6.576;2023-01-29T18:22:48;2.40;99.90
42907;DHT22;28552;51.146;6.576;2023-01-29T18:25:48;2.40;99.90
42907;DHT22;28552;51.146;6.576;2023-01-29T18:28:49;2.50;99.90
42907;DHT22;28552;51.146;6.576;2023-01-29T18:31:49;2.40;99.90
42907;DHT22;28552;51.146;6.576;2023-01-29T18:34:50;2.40;99.90
42907;DHT22;28552;51.146;6.576;2023-01-29T18:37:50;2.40;99.90
42907;DHT22;28552;51.146;6.576;2023-01-29T18:40:51;2.40;99.90
42907;DHT22;28552;51.146;6.576;2023-01-29T18:43:51;2.40;99.90
42907;DHT22;28552;51.146;6.576;2023-01-29T18:46:52;2.50;99.90
42907;DHT22;28552;51.146;6.576;2023-01-29T18:49:53;2.40;99.90
42907;DHT22;28552;51.146;6.576;2023-01-29T18:52:54;2.40;99.90
42907;DHT22;28552;51.146;6.576;2023-01-29T18:55:58;2.40;99.90
42907;DHT22;28552;51.146;6.576;2023-01-29T18:58:59;2.40;99.90
42907;DHT22;28552;51.146;6.576;2023-01-29T19:02:00;2.40;99.90
42907;DHT22;28552;51.146;6.576;2023-01-29T19:05:01;2.40;99.90
42907;DHT22;28552;51.146;6.576;2023-01-29T19:08:01;2.40;99.90
42907;DHT22;28552;51.146;6.576;2023-01-29T19:11:02;2.50;99.90
42907;DHT22;28552;51.146;6.576;2023-01-29T19:14:03;2.40;99.90
42907;DHT22;28552;51.146;6.576;2023-01-29T19:17:04;2.50;99.90
42907;DHT22;28552;51.146;6.576;2023-01-29T19:20:05;2.40;99.90
42907;DHT22;28552;51.146;6.576;2023-01-29T19:23:06;2.40;99.90
42907;DHT22;28552;51.146;6.576;2023-01-29T19:26:06;2.40;99.90
42907;DHT22;28552;51.146;6.576;2023-01-29T19:29:07;2.50;99.90
42907;DHT22;28552;51.146;6.576;2023-01-29T19:32:08;2.50;99.90
42907;DHT22;28552;51.146;6.576;2023-01-29T19:35:09;2.50;99.90
42907;DHT22;28552;51.146;6.576;2023-01-29T19:38:09;2.50;99.90
42907;DHT22;28552;51.146;6.576;2023-01-29T19:41:10;2.50;99.90
42907;DHT22;28552;51.146;6.576;2023-01-29T19:44:11;2.50;99.90
42907;DHT22;28552;51.146;6.576;2023-01-29T19:47:11;2.50;99.90
42907;DHT22;28552;51.146;6.576;2023-01-29T19:50:12;2.50;99.90
42907;DHT22;28552;51.146;6.576;2023-01-29T19:53:12;2.50;99.90
42907;DHT22;28552;51.146;6.576;2023-01-29T19:56:14;2.40;99.90
42907;DHT22;28552;51.146;6.576;2023-01-29T19:59:15;2.40;99.90
42907;DHT22;28552;51.146;6.576;2023-01-29T20:02:16;2.50;99.90
42907;DHT22;28552;51.146;6.576;2023-01-29T20:05:16;2.50;99.90
42907;DHT22;28552;51.146;6.576;2023-01-29T20:08:17;2.50;99.90
42907;DHT22;28552;51.146;6.576;2023-01-29T20:11:20;2.50;99.90
42907;DHT22;28552;51.146;6.576;2023-01-29T20:14:21;2.50;99.90
42907;DHT22;28552;51.146;6.576;2023-01-29T20:17:22;2.50;99.90
42907;DHT22;28552;51.146;6.576;2023-01-29T20:20:22;2.60;99.90
42907;DHT22;28552;51.146;6.576;2023-01-29T20:23:23;2.60;99.90
42907;DHT22;28552;51.146;6.576;2023-01-29T20:26:25;2.60;99.90
42907;DHT22;28552;51.146;6.576;2023-01-29T20:29:25;2.60;99.90
42907;DHT22;28552;51.146;6.576;2023-01-29T20:32:26;2.60;99.90
42907;DHT22;28552;51.146;6.576;2023-01-29T20:35:28;2.60;99.90
42907;DHT22;28552;51.146;6.576;2023-01-29T20:38:29;2.60;99.90
42907;DHT22;28552;51.146;6.576;2023-01-29T20:41:30;2.70;99.90
42907;DHT22;28552;51.146;6.576;2023-01-29T20:44:31;2.70;99.90
42907;DHT22;28552;51.146;6.576;2023-01-29T20:47:32;2.70;99.90
42907;DHT22;28552;51.146;6.576;2023-01-29T20:50:34;2.70;99.90
42907;DHT22;28552;51.146;6.576;2023-01-29T20:53:35;2.70;99.90
42907;DHT22;28552;51.146;6.576;2023-01-29T20:56:36;2.70;99.90
42907;DHT22;28552;51.146;6.576;2023-01-29T20:59:36;2.70;99.90
42907;DHT22;28552;51.146;6.576;2023-01-29T21:02:37;2.80;99.90
42907;DHT22;28552;51.146;6.576;2023-01-29T21:05:37;2.80;99.90
42907;DHT22;28552;51.146;6.576;2023-01-29T21:08:38;2.90;99.90
42907;DHT22;28552;51.146;6.576;2023-01-29T21:11:39;2.80;99.90
42907;DHT22;28552;51.146;6.576;2023-01-29T21:14:40;2.80;99.90
42907;DHT22;28552;51.146;6.576;2023-01-29T21:17:40;2.90;99.90